• Join FlightAware (Why Join?)
  • Login
  • US Flag 
04:59AM EDT


 

Airport Tracker/Info


-or-


 

Live Flight TrackerFlight Track Log ✈ AAL963 ✈ 29-Jul-2013 ✈ KDFW - SBGR / GRU

Flight Track Log - Related Links

Times and Time Zones

All times are in EDT time to prevent confusion due to time zone crossing. See the AAL963 flight status page for this flight to view local times or setup timezone preferences in your user account.

Time Position Orientation Groundspeed Altitude Reporting Facility
EDT Latitude Longitude Course Direction KTS MPH feet Rate Location/Type
09:53PM 32.8740 -97.0300 180° South 180 207 1,400  Level FlightAware
09:54PM 32.8580 -97.0270 171° South 181 208 2,100 1,500 Climbing FlightAware
09:54PM 32.8410 -97.0220 166° South 197 227 2,400 720 Climbing FlightAware
09:54PM 32.8230 -97.0150 162° South 219 252 2,600 1,020 Climbing FlightAware
09:55PM 32.8000 -97.0060 162° South 233 268 3,100 1,260 Climbing FlightAware
09:55PM 32.7830 -97.0000 163° South 242 278 3,400 1,500 Climbing FlightAware
09:55PM 32.7680 -96.9940 161° South 243 280 3,900 2,100 Climbing FlightAware
09:55PM 32.7400 -96.9840 163° South 247 284 4,800 1,920 Climbing FlightAware
09:56PM 32.7140 -96.9740 162° South 251 289 5,500 1,860 Climbing FlightAware
09:56PM 32.6940 -96.9660 161° South 251 289 6,200 1,920 Climbing FlightAware
09:56PM 32.6800 -96.9610 163° South 258 297 6,500 1,800 Climbing FlightAware
09:57PM 32.6520 -96.9510 163° South 262 302 7,300 1,680 Climbing FlightAware
09:57PM 32.6260 -96.9410 162° South 276 318 7,800 1,800 Climbing FlightAware
09:57PM 32.6100 -96.9350 162° South 273 314 8,300 2,040 Climbing FlightAware
09:58PM 32.5840 -96.9260 164° South 275 316 9,000 1,500 Climbing FlightAware
09:58PM 32.5590 -96.9170 163° South 285 328 9,400 1,500 Climbing FlightAware
09:58PM 32.5350 -96.9080 162° South 289 333 10,000 1,320 Climbing FlightAware
09:59PM 32.4890 -96.8910 163° South 312 359 10,600 840 Climbing FlightAware
09:59PM 32.4490 -96.8760 162° South 336 387 10,900 840 Climbing FlightAware
10:00PM 32.3420 -96.8370 163° South 383 441 11,900 1,080 Climbing FlightAware
10:01PM 32.2770 -96.8130 163° South 396 456 12,800 1,380 Climbing FlightAware
10:02PM 32.2180 -96.7900 162° South 409 471 13,600 1,620 Climbing FlightAware
10:02PM 32.1510 -96.7650 162° South 414 476 14,700 1,740 Climbing FlightAware
10:03PM 32.0890 -96.7410 162° South 418 481 15,700 1,800 Climbing FlightAware
10:03PM 32.0576 -96.7289 162° South 422 486 16,200 1,680 Climbing FlightAware ADS-B
10:04PM 31.9852 -96.7014 162° South 427 491 17,200 1,620 Climbing FlightAware ADS-B
10:04PM 31.9282 -96.6799 162° South 429 494 18,100 1,740 Climbing FlightAware ADS-B
10:05PM 31.8700 -96.6578 162° South 429 494 19,000 1,500 Climbing FlightAware ADS-B
10:05PM 31.8113 -96.6338 161° South 436 502 19,700 1,320 Climbing FlightAware ADS-B
10:06PM 31.7528 -96.6094 160° South 440 506 20,400 1,380 Climbing FlightAware ADS-B
10:06PM 31.6863 -96.5820 161° South 447 514 21,200 1,200 Climbing FlightAware ADS-B
10:07PM 31.6272 -96.5580 161° South 453 521 21,700 1,080 Climbing FlightAware ADS-B
10:07PM 31.5669 -96.5335 161° South 459 528 22,300 1,140 Climbing FlightAware ADS-B
10:08PM 31.5047 -96.5083 161° South 463 533 22,900 1,140 Climbing FlightAware ADS-B
10:08PM 31.4383 -96.4834 162° South 468 539 23,500 1,140 Climbing FlightAware ADS-B
10:09PM 31.3760 -96.4605 163° South 472 543 24,100 1,080 Climbing FlightAware ADS-B
10:10PM 31.2192 -96.3987 157° South 481 554 25,400 960 Climbing FlightAware ADS-B
10:11PM 31.1779 -96.3687 145° Southeast 487 560 25,700 840 Climbing FlightAware ADS-B
10:11PM 31.1573 -96.3478 139° Southeast 490 564 25,900 780 Climbing FlightAware ADS-B
10:13PM 30.9592 -96.1158 135° Southeast 508 585 27,500 780 Climbing FlightAware ADS-B
10:13PM 30.9092 -96.0575 135° Southeast 511 588 27,900 900 Climbing FlightAware ADS-B
10:14PM 30.8586 -95.9985 135° Southeast 510 587 28,400 960 Climbing FlightAware ADS-B
10:14PM 30.8079 -95.9398 135° Southeast 509 586 28,900 840 Climbing FlightAware ADS-B
10:15PM 30.7573 -95.8811 135° Southeast 511 588 29,300 780 Climbing FlightAware ADS-B
10:15PM 30.7069 -95.8226 135° Southeast 513 590 29,700 660 Climbing FlightAware ADS-B
10:16PM 30.6557 -95.7636 135° Southeast 515 593 30,000 840 Climbing FlightAware ADS-B
10:17PM 30.5524 -95.6446 135° Southeast 514 592 31,000 420 Climbing FlightAware ADS-B
10:18PM 30.4432 -95.5190 135° Southeast 511 588 31,000  Level FlightAware ADS-B
10:19PM 30.3409 -95.4019 135° Southeast 510 587 31,000  Level FlightAware ADS-B
10:19PM 30.2905 -95.3443 135° Southeast 510 587 31,000  Level FlightAware ADS-B
10:20PM 30.2395 -95.2861 135° Southeast 509 586 31,000  Level FlightAware ADS-B
10:21PM 30.1793 -95.2175 135° Southeast 509 586 31,000  Level FlightAware ADS-B
10:21PM 30.1284 -95.1596 135° Southeast 509 586 31,000  Level FlightAware ADS-B
10:22PM 30.0278 -95.0455 136° Southeast 508 585 31,000  Level FlightAware ADS-B
10:23PM 29.9771 -94.9880 136° Southeast 507 583 31,000  Level FlightAware ADS-B
10:23PM 29.9260 -94.9303 136° Southeast 507 583 31,000  Level FlightAware ADS-B
10:24PM 29.8753 -94.8730 136° Southeast 506 582 31,000  Level FlightAware ADS-B
10:24PM 29.8246 -94.8160 136° Southeast 507 583 31,000  Level FlightAware ADS-B
10:25PM 29.7736 -94.7586 136° Southeast 508 585 31,000  Level FlightAware ADS-B
10:25PM 29.7223 -94.7010 136° Southeast 508 585 31,000  Level FlightAware ADS-B
10:26PM 29.6716 -94.6441 136° Southeast 509 586 31,000  Level FlightAware ADS-B
10:26PM 29.6206 -94.5870 136° Southeast 509 586 31,000  Level FlightAware ADS-B
10:27PM 29.5697 -94.5301 136° Southeast 509 586 31,000  Level FlightAware ADS-B
10:27PM 29.5191 -94.4735 136° Southeast 509 586 31,000  Level FlightAware ADS-B
10:28PM 29.4679 -94.4165 136° Southeast 508 585 31,000  Level FlightAware ADS-B
10:28PM 29.4168 -94.3596 136° Southeast 508 585 31,000  Level FlightAware ADS-B
10:29PM 29.3647 -94.3017 136° Southeast 507 583 31,000  Level FlightAware ADS-B
10:29PM 29.3126 -94.2441 136° Southeast 506 582 31,000  Level FlightAware ADS-B
10:30PM 29.2618 -94.1879 136° Southeast 506 582 31,000  Level FlightAware ADS-B
10:30PM 29.2109 -94.1317 136° Southeast 505 581 31,000  Level FlightAware ADS-B
10:31PM 29.1563 -94.0716 136° Southeast 504 580 31,000  Level FlightAware ADS-B
10:32PM 29.0544 -93.9558 136° Southeast 503 579 31,000 -60 Level Houston Center
10:33PM 28.9561 -93.8439 135° Southeast 499 574 30,900  Descending Houston Center
10:34PM 28.8522 -93.7411 139° Southeast 496 571 31,000  Climbing Houston Center
10:35PM 28.7506 -93.6278 136° Southeast 504 580 31,000  Level Houston Center
10:36PM 28.6517 -93.5194 136° Southeast 500 575 31,000  Level Houston Center
10:37PM 28.5503 -93.4089 136° Southeast 500 575 31,000 180 Level Houston Center
10:38PM 28.4497 -93.3011 137° Southeast 497 572 31,400 660 Climbing Houston Center
10:39PM 28.3511 -93.1950 137° Southeast 495 570 32,400 780 Climbing Houston Center
10:40PM 28.2531 -93.0872 136° Southeast 492 566 33,000 240 Climbing Houston Center
10:41PM 28.1344 -92.9633 137° Southeast 485 558 32,900  Descending Houston Center
10:46PM 27.6157 -92.4111 137° Southeast 486 559 33,000  Climbing FlightAware ADS-B
10:54PM 26.8548 -91.6837 144° Southeast  Level FlightAware Approximate
10:55PM 26.7441 -91.5955 145° Southeast  Level FlightAware Approximate
10:56PM 26.6333 -91.5075 145° Southeast  Level FlightAware Approximate
10:57PM 26.5225 -91.4196 145° Southeast  Level FlightAware Approximate
10:58PM 26.4116 -91.3319 145° Southeast  Level FlightAware Approximate
10:59PM 26.3002 -91.2452 146° Southeast  Level FlightAware Approximate
11:00PM 26.1880 -91.1597 146° Southeast  Level FlightAware Approximate
11:01PM 26.0759 -91.0743 146° Southeast  Level FlightAware Approximate
11:02PM 25.9641 -90.9883 145° Southeast  Level FlightAware Approximate
11:03PM 25.8533 -90.9010 145° Southeast  Level FlightAware Approximate
11:04PM 25.7425 -90.8138 145° Southeast  Level FlightAware Approximate
11:05PM 25.6315 -90.7267 145° Southeast  Level FlightAware Approximate
11:06PM 25.5206 -90.6398 145° Southeast  Level FlightAware Approximate
11:07PM 25.4096 -90.5531 145° Southeast  Level FlightAware Approximate
11:08PM 25.2985 -90.4666 145° Southeast  Level FlightAware Approximate
11:09PM 25.1874 -90.3802 145° Southeast  Level FlightAware Approximate
11:10PM 25.0762 -90.2939 145° Southeast  Level FlightAware Approximate
11:11PM 24.9650 -90.2078 145° Southeast  Level FlightAware Approximate
11:12PM 24.8537 -90.1219 145° Southeast  Level FlightAware Approximate
11:13PM 24.7424 -90.0361 145° Southeast  Level FlightAware Approximate
11:14PM 24.6310 -89.9505 145° Southeast  Level FlightAware Approximate
11:15PM 24.5196 -89.8650 145° Southeast  Level FlightAware Approximate
11:16PM 24.4101 -89.7769 145° Southeast  Level FlightAware Approximate
11:17PM 24.2989 -89.6914 145° Southeast  Level FlightAware Approximate
11:18PM 24.1850 -89.6101 148° Southeast  Level FlightAware Approximate
11:19PM 24.0702 -89.5306 148° Southeast  Level FlightAware Approximate
11:20PM 23.9588 -89.4456 145° Southeast  Level FlightAware Approximate
11:21PM 23.8481 -89.3595 145° Southeast  Level FlightAware Approximate
11:22PM 23.7372 -89.2737 145° Southeast  Level FlightAware Approximate
11:23PM 23.6252 -89.1897 146° Southeast  Level FlightAware Approximate
11:24PM 23.5145 -89.1038 144° Southeast  Level FlightAware Approximate
11:24PM 23.4520 -89.0630 144° Southeast 502 578 33,000  Level FlightAware
11:24PM 23.3850 -89.0120 145° Southeast 503 579 33,000  Level FlightAware
11:25PM 23.3270 -88.9690 146° Southeast 504 580 33,000  Level FlightAware
11:25PM 23.2730 -88.9290 146° Southeast 504 580 33,000  Level FlightAware
11:26PM 23.1890 -88.8660 145° Southeast 504 580 33,000  Level FlightAware
11:27PM 23.1400 -88.8300 146° Southeast 504 580 33,000  Level FlightAware
11:27PM 23.0660 -88.7750 146° Southeast 506 582 33,000  Level FlightAware
11:28PM 23.0020 -88.7280 146° Southeast 505 581 33,000  Level FlightAware
11:28PM 22.9310 -88.6750 145° Southeast 505 581 33,000  Level FlightAware
11:29PM 22.8630 -88.6250 146° Southeast 504 580 33,000  Level FlightAware
11:30PM 22.7990 -88.5780 146° Southeast 503 579 33,000  Level FlightAware
11:30PM 22.7270 -88.5250 146° Southeast 504 580 33,000  Level FlightAware
11:31PM 22.6610 -88.4760 146° Southeast 503 579 33,000  Level FlightAware
11:31PM 22.5960 -88.4240 144° Southeast 502 578 33,000  Level FlightAware
11:32PM 22.5290 -88.3590 138° Southeast 500 575 33,000  Level FlightAware
11:33PM 22.4590 -88.2880 137° Southeast 501 577 33,000  Level FlightAware
11:33PM 22.4050 -88.2340 137° Southeast 502 578 33,000  Level FlightAware
11:34PM 22.3410 -88.1680 136° Southeast 501 577 33,000  Level FlightAware
11:34PM 22.2860 -88.1130 137° Southeast 501 577 33,000  Level FlightAware
11:35PM 22.2300 -88.0560 137° Southeast 500 575 33,000  Level FlightAware
11:35PM 22.1750 -88.0010 137° Southeast 499 574 33,000  Level FlightAware
11:36PM 22.1120 -87.9370 137° Southeast 498 573 33,000  Level FlightAware
11:37PM 22.0420 -87.8670 137° Southeast 498 573 33,000  Level FlightAware
11:37PM 21.9850 -87.8090 137° Southeast 496 571 33,000  Level FlightAware
11:38PM 21.9330 -87.7570 137° Southeast 496 571 33,000  Level FlightAware
11:38PM 21.8710 -87.6940 137° Southeast 495 570 33,000  Level FlightAware
11:39PM 21.8130 -87.6360 137° Southeast 496 571 33,000  Level FlightAware
11:40PM 21.7510 -87.5750 138° Southeast 496 571 33,000  Level FlightAware
11:40PM 21.6990 -87.5240 138° Southeast 496 571 33,000  Level FlightAware
11:41PM 21.6270 -87.4520 137° Southeast 496 571 33,000  Level FlightAware
11:41PM 21.5700 -87.3960 138° Southeast 494 568 33,000  Level FlightAware
11:42PM 21.5020 -87.3290 137° Southeast 493 567 33,000  Level FlightAware
11:43PM 21.4520 -87.2790 137° Southeast 494 568 33,000  Level FlightAware
11:43PM 21.3750 -87.2030 137° Southeast 494 568 33,000 360 Level FlightAware
11:44PM 21.3160 -87.1450 138° Southeast 495 570 33,500 840 Climbing FlightAware
11:45PM 21.2310 -87.0610 137° Southeast 494 568 34,100 780 Climbing FlightAware
11:45PM 21.1690 -87.0000 137° Southeast 494 568 34,600 720 Climbing FlightAware
11:46PM 21.1090 -86.9410 137° Southeast 494 568 35,000 300 Climbing FlightAware
11:46PM 21.0550 -86.8880 138° Southeast 493 567 35,000  Level FlightAware
11:47PM 20.9970 -86.8310 137° Southeast 492 566 35,000  Level FlightAware
11:48PM 20.9340 -86.7700 138° Southeast 492 566 35,000  Level FlightAware
11:48PM 20.8790 -86.7170 138° Southeast 492 566 35,000  Level FlightAware
11:49PM 20.8180 -86.6570 137° Southeast 491 565 35,000  Level FlightAware
11:49PM 20.7600 -86.6020 138° Southeast 493 567 35,000  Level FlightAware
11:50PM 20.7030 -86.5470 138° Southeast 495 570 35,000  Level FlightAware
11:50PM 20.6450 -86.4900 137° Southeast 496 571 35,000  Level FlightAware
11:51PM 20.5870 -86.4340 138° Southeast 497 572 35,000  Level FlightAware
11:52PM 20.5220 -86.3710 138° Southeast 497 572 35,000  Level FlightAware
11:52PM 20.4630 -86.3140 138° Southeast 497 572 35,000  Level FlightAware
11:53PM 20.4100 -86.2620 137° Southeast 498 573 35,000  Level FlightAware
11:54PM 20.3590 -86.2110 137° Southeast 498 573 35,000  Level FlightAware
11:54PM 20.2710 -86.1300 139° Southeast 500 575 35,000  Level FlightAware
11:55PM 20.1830 -86.0450 138° Southeast 499 574 35,000  Level FlightAware
11:55PM 20.1250 -85.9890 138° Southeast 499 574 35,000  Level FlightAware
11:56PM 20.0670 -85.9340 138° Southeast 498 573 35,000  Level FlightAware
11:57PM 20.0000 -85.8710 139° Southeast 498 573 35,000  Level FlightAware
11:57PM 19.9470 -85.8210 138° Southeast 497 572 35,000  Level FlightAware
11:58PM 19.8810 -85.7580 138° Southeast 497 572 35,000  Level FlightAware
11:58PM 19.8250 -85.7060 139° Southeast 497 572 35,000  Level FlightAware
11:59PM 19.7630 -85.6470 138° Southeast 497 572 35,000  Level FlightAware
12:00AM 19.7060 -85.5930 138° Southeast 496 571 35,000  Level FlightAware
12:00AM 19.6420 -85.5330 139° Southeast 496 571 35,000  Level FlightAware
12:01AM 19.5720 -85.4680 139° Southeast 496 571 35,000  Level FlightAware
12:01AM 19.5080 -85.4080 139° Southeast 496 571 35,000  Level FlightAware
12:02AM 19.4470 -85.3510 139° Southeast 497 572 35,000  Level FlightAware
12:03AM 19.3910 -85.2990 139° Southeast 497 572 35,000  Level FlightAware
12:03AM 19.3170 -85.2280 138° Southeast 498 573 35,000  Level FlightAware
12:04AM 19.2560 -85.1720 139° Southeast 498 573 35,000  Level FlightAware
12:04AM 19.2080 -85.1270 138° Southeast 498 573 35,000  Level FlightAware
12:05AM 19.1550 -85.0770 138° Southeast 498 573 35,000  Level FlightAware
12:06AM 19.1030 -85.0270 138° Southeast 498 573 35,000  Level FlightAware
12:06AM 19.0510 -84.9770 138° Southeast 498 573 35,000  Level FlightAware
12:07AM 18.9980 -84.9270 138° Southeast 498 573 35,000  Level FlightAware
12:07AM 18.9460 -84.8770 138° Southeast 498 573 35,000  Level FlightAware
12:08AM 18.8930 -84.8270 138° Southeast 498 573 35,000  Level FlightAware
12:11AM 18.5894 -84.5514 138° Southeast  Level FlightAware Approximate
12:12AM 18.4954 -84.4493 123° Southeast  Level FlightAware Approximate
12:13AM 18.4202 -84.3300 125° Southeast  Level FlightAware Approximate
12:14AM 18.3430 -84.2123 125° Southeast  Level FlightAware Approximate
12:15AM 18.2656 -84.0946 125° Southeast  Level FlightAware Approximate
12:16AM 18.1882 -83.9771 125° Southeast  Level FlightAware Approximate
12:17AM 18.1108 -83.8596 125° Southeast  Level FlightAware Approximate
12:18AM 18.0332 -83.7423 125° Southeast  Level FlightAware Approximate
12:19AM 17.9556 -83.6251 125° Southeast  Level FlightAware Approximate
12:20AM 17.8601 -83.5238 135° Southeast  Level FlightAware Approximate
12:21AM 17.7631 -83.4238 136° Southeast  Level FlightAware Approximate
12:22AM 17.6661 -83.3240 136° Southeast  Level FlightAware Approximate
12:23AM 17.5691 -83.2242 136° Southeast  Level FlightAware Approximate
12:24AM 17.4720 -83.1246 136° Southeast  Level FlightAware Approximate
12:25AM 17.3749 -83.0251 136° Southeast  Level FlightAware Approximate
12:26AM 17.2730 -82.9310 139° Southeast  Level FlightAware Approximate
12:27AM 17.1706 -82.8375 139° Southeast  Level FlightAware Approximate
12:28AM 17.0682 -82.7441 139° Southeast  Level FlightAware Approximate
12:29AM 16.9657 -82.6508 139° Southeast  Level FlightAware Approximate
12:30AM 16.8632 -82.5576 139° Southeast  Level FlightAware Approximate
12:31AM 16.7607 -82.4645 139° Southeast  Level FlightAware Approximate
12:32AM 16.6581 -82.3715 139° Southeast  Level FlightAware Approximate
12:33AM 16.5555 -82.2786 139° Southeast  Level FlightAware Approximate
12:34AM 16.4528 -82.1858 139° Southeast  Level FlightAware Approximate
12:35AM 16.3579 -82.0845 134° Southeast  Level FlightAware Approximate
12:36AM 16.2632 -81.9830 134° Southeast  Level FlightAware Approximate
12:37AM 16.1685 -81.8816 134° Southeast  Level FlightAware Approximate
12:38AM 16.0737 -81.7803 134° Southeast  Level FlightAware Approximate
12:39AM 15.9789 -81.6791 134° Southeast  Level FlightAware Approximate
12:40AM 15.8840 -81.5780 134° Southeast  Level FlightAware Approximate
12:41AM 15.7891 -81.4770 134° Southeast  Level FlightAware Approximate
12:42AM 15.6945 -81.3756 133° Southeast  Level FlightAware Approximate
12:43AM 15.6011 -81.2731 133° Southeast  Level FlightAware Approximate
12:44AM 15.5077 -81.1708 133° Southeast  Level FlightAware Approximate
12:45AM 15.4143 -81.0685 133° Southeast  Level FlightAware Approximate
12:46AM 15.3208 -80.9662 133° Southeast  Level FlightAware Approximate
12:47AM 15.2272 -80.8641 134° Southeast  Level FlightAware Approximate
12:48AM 15.1336 -80.7621 134° Southeast  Level FlightAware Approximate
12:49AM 15.0400 -80.6602 134° Southeast  Level FlightAware Approximate
12:50AM 14.9386 -80.5672 142° Southeast  Level FlightAware Approximate
12:51AM 14.8313 -80.4809 142° Southeast  Level FlightAware Approximate
12:52AM 14.7240 -80.3947 142° Southeast  Level FlightAware Approximate
12:53AM 14.6167 -80.3086 142° Southeast  Level FlightAware Approximate
12:54AM 14.5093 -80.2226 142° Southeast  Level FlightAware Approximate
12:55AM 14.4020 -80.1367 142° Southeast  Level FlightAware Approximate
12:56AM 14.2946 -80.0508 142° Southeast  Level FlightAware Approximate
12:57AM 14.1871 -79.9650 142° Southeast  Level FlightAware Approximate
12:58AM 14.0796 -79.8793 142° Southeast  Level FlightAware Approximate
12:59AM 13.9721 -79.7937 142° Southeast  Level FlightAware Approximate
01:00AM 13.8646 -79.7082 142° Southeast  Level FlightAware Approximate
01:01AM 13.7572 -79.6226 142° Southeast  Level FlightAware Approximate
01:02AM 13.6497 -79.5370 142° Southeast  Level FlightAware Approximate
01:03AM 13.5423 -79.4515 142° Southeast  Level FlightAware Approximate
01:04AM 13.4348 -79.3660 142° Southeast  Level FlightAware Approximate
01:05AM 13.3273 -79.2807 142° Southeast  Level FlightAware Approximate
01:06AM 13.2198 -79.1954 142° Southeast  Level FlightAware Approximate
01:07AM 13.1122 -79.1102 142° Southeast  Level FlightAware Approximate
01:08AM 13.0046 -79.0250 142° Southeast  Level FlightAware Approximate
01:09AM 12.8969 -78.9400 142° Southeast  Level FlightAware Approximate
01:10AM 12.7893 -78.8550 142° Southeast  Level FlightAware Approximate
01:11AM 12.6816 -78.7701 142° Southeast  Level FlightAware Approximate
01:12AM 12.5739 -78.6852 142° Southeast  Level FlightAware Approximate
01:13AM 12.4662 -78.6005 142° Southeast  Level FlightAware Approximate
01:14AM 12.3584 -78.5158 142° Southeast  Level FlightAware Approximate
01:15AM 12.2506 -78.4311 142° Southeast  Level FlightAware Approximate
01:16AM 12.1428 -78.3466 143° Southeast  Level FlightAware Approximate
01:17AM 12.0350 -78.2621 143° Southeast  Level FlightAware Approximate
01:18AM 11.9271 -78.1776 143° Southeast  Level FlightAware Approximate
01:19AM 11.8192 -78.0933 143° Southeast  Level FlightAware Approximate
01:20AM 11.7113 -78.0090 143° Southeast  Level FlightAware Approximate
01:21AM 11.6034 -77.9248 143° Southeast  Level FlightAware Approximate
01:22AM 11.4954 -77.8406 143° Southeast  Level FlightAware Approximate
01:23AM 11.3874 -77.7565 143° Southeast  Level FlightAware Approximate
01:24AM 11.2794 -77.6725 143° Southeast  Level FlightAware Approximate
01:25AM 11.1714 -77.5885 143° Southeast  Level FlightAware Approximate
01:26AM 11.0633 -77.5046 143° Southeast  Level FlightAware Approximate
01:27AM 10.9552 -77.4207 143° Southeast  Level FlightAware Approximate
01:28AM 10.8553 -77.3271 137° Southeast  Level FlightAware Approximate
01:29AM 10.7556 -77.2331 137° Southeast  Level FlightAware Approximate
01:30AM 10.6560 -77.1391 137° Southeast  Level FlightAware Approximate
01:30AM 10.4370 -76.9300 137° Southeast 496 571 35,000  Level FlightAware
01:31AM 10.5563 -77.0452 137° Southeast  Level FlightAware Approximate
01:31AM 10.3700 -76.8680 138° Southeast 497 572 35,000  Level FlightAware
01:32AM 10.3040 -76.8070 138° Southeast 498 573 35,000  Level FlightAware
01:32AM 10.2530 -76.7590 137° Southeast 497 572 35,000  Level FlightAware
01:33AM 10.1800 -76.6920 138° Southeast 498 573 35,000  Level FlightAware
01:33AM 10.1220 -76.6380 137° Southeast 497 572 35,000  Level FlightAware
01:34AM 10.0490 -76.5700 137° Southeast 496 571 35,000  Level FlightAware
01:35AM 9.9980 -76.5210 137° Southeast 496 571 35,000  Level FlightAware
01:35AM 9.8950 -76.5020 167° South 508 585 35,000  Level FlightAware
01:36AM 9.7910 -76.4760 166° South 507 583 35,000  Level FlightAware
01:37AM 9.7110 -76.4560 166° South 507 583 35,000  Level FlightAware
01:37AM 9.6300 -76.4320 164° South 507 583 35,000  Level FlightAware
01:38AM 9.5480 -76.4090 165° South 507 583 35,000  Level FlightAware
01:38AM 9.4810 -76.3890 164° South 506 582 35,000  Level FlightAware
01:39AM 9.3870 -76.3620 164° South 505 581 35,000  Level FlightAware
01:40AM 9.3110 -76.3390 163° South 504 580 35,000  Level FlightAware
01:40AM 9.2190 -76.3090 162° South 504 580 35,000  Level FlightAware
01:41AM 9.1510 -76.2870 162° South 504 580 35,000  Level FlightAware
01:42AM 9.0830 -76.2650 162° South 504 580 35,000  Level FlightAware
01:42AM 9.0150 -76.2420 162° South 504 580 35,000  Level FlightAware
01:43AM 8.8690 -76.2000 164° South 503 579 35,000  Level FlightAware
01:44AM 8.7780 -76.1810 168° South 509 586 35,000  Level FlightAware
01:44AM 8.6720 -76.1650 172° South 511 588 35,000  Level FlightAware
01:45AM 8.5820 -76.1610 177° South 511 588 35,000  Level FlightAware
01:46AM 8.5000 -76.1180 153° Southeast 510 587 35,000  Level FlightAware
01:47AM 8.3970 -76.0490 146° Southeast 512 589 35,000  Level FlightAware
01:47AM 8.3170 -75.9960 147° Southeast 513 590 35,000  Level FlightAware
01:48AM 8.2480 -75.9470 145° Southeast 512 589 35,000  Level FlightAware
01:48AM 8.1780 -75.8890 141° Southeast 510 587 35,000  Level FlightAware
01:49AM 8.1170 -75.8340 138° Southeast 507 583 35,000  Level FlightAware
01:50AM 8.0580 -75.7820 139° Southeast 508 585 35,000  Level FlightAware
01:50AM 7.9970 -75.7270 138° Southeast 507 583 35,000  Level FlightAware
01:51AM 7.9230 -75.6610 139° Southeast 504 580 35,000  Level FlightAware
01:51AM 7.8680 -75.6120 139° Southeast 501 577 35,000  Level FlightAware
01:52AM 7.7980 -75.5590 143° Southeast 504 580 35,000  Level FlightAware
01:53AM 7.7350 -75.5130 144° Southeast 501 577 35,000  Level FlightAware
01:53AM 7.6720 -75.4630 142° Southeast 501 577 35,000  Level FlightAware
01:54AM 7.6050 -75.4090 141° Southeast 501 577 35,000  Level FlightAware
01:54AM 7.5220 -75.3430 142° Southeast 502 578 35,000  Level FlightAware
01:55AM 7.4740 -75.3010 139° Southeast 500 575 35,000  Level FlightAware
01:56AM 7.4110 -75.2400 136° Southeast 500 575 35,000  Level FlightAware
01:56AM 7.3600 -75.1900 136° Southeast 500 575 35,000  Level FlightAware
01:57AM 7.2900 -75.1210 136° Southeast 495 570 35,000  Level FlightAware
01:57AM 7.2300 -75.0630 136° Southeast 493 567 35,000  Level FlightAware
01:58AM 7.1640 -74.9990 136° Southeast 490 564 35,000  Level FlightAware
01:59AM 7.1110 -74.9470 136° Southeast 488 562 35,000  Level FlightAware
01:59AM 7.0510 -74.8880 136° Southeast 485 558 35,000  Level FlightAware
02:00AM 6.9940 -74.8360 138° Southeast 486 559 35,000  Level FlightAware
02:01AM 6.9060 -74.7710 144° Southeast 486 559 35,000  Level FlightAware
02:01AM 6.8460 -74.7280 145° Southeast 485 558 35,000  Level FlightAware
02:02AM 6.7710 -74.6730 144° Southeast 485 558 35,000  Level FlightAware
02:03AM 6.7160 -74.6330 144° Southeast 485 558 35,000  Level FlightAware
02:03AM 6.6600 -74.5920 144° Southeast 485 558 35,000  Level FlightAware
02:04AM 6.6050 -74.5510 143° Southeast 485 558 35,000  Level FlightAware
02:04AM 6.5110 -74.4660 138° Southeast 486 559 35,000  Level FlightAware
02:05AM 6.4540 -74.4190 141° Southeast 487 560 35,000  Level FlightAware
02:05AM 6.3890 -74.3670 142° Southeast 489 563 35,000  Level FlightAware
02:06AM 6.3260 -74.3160 141° Southeast 487 560 35,000  Level FlightAware
02:07AM 6.2700 -74.2710 141° Southeast 486 559 35,000  Level FlightAware
02:07AM 6.2080 -74.2200 141° Southeast 484 557 35,000  Level FlightAware
02:08AM 6.1450 -74.1690 141° Southeast 482 555 35,000  Level FlightAware
02:08AM 6.0810 -74.1180 142° Southeast 481 554 35,000  Level FlightAware
02:09AM 6.0260 -74.0730 141° Southeast 481 554 35,000  Level FlightAware
02:10AM 5.9640 -74.0230 141° Southeast 481 554 35,000  Level FlightAware
02:10AM 5.9020 -73.9730 141° Southeast 481 554 35,000  Level FlightAware
02:11AM 5.8390 -73.9220 141° Southeast 481 554 35,000  Level FlightAware
02:11AM 5.7830 -73.8760 141° Southeast 483 556 35,000  Level FlightAware
02:12AM 5.7170 -73.8230 141° Southeast 483 556 35,000  Level FlightAware
02:12AM 5.6540 -73.7720 141° Southeast 484 557 35,000  Level FlightAware
02:13AM 5.5970 -73.7270 142° Southeast 484 557 35,000  Level FlightAware
02:14AM 5.5350 -73.6760 141° Southeast 486 559 35,000  Level FlightAware
02:14AM 5.4710 -73.6250 142° Southeast 489 563 35,000  Level FlightAware
02:15AM 5.4180 -73.5820 141° Southeast 490 564 35,000  Level FlightAware
02:15AM 5.3470 -73.5250 141° Southeast 492 566 35,000  Level FlightAware
02:16AM 5.2830 -73.4730 141° Southeast 493 567 35,000  Level FlightAware
02:17AM 5.2270 -73.4280 141° Southeast 493 567 35,000  Level FlightAware
02:17AM 5.1610 -73.3750 141° Southeast 492 566 35,000  Level FlightAware
02:18AM 5.1040 -73.3290 141° Southeast 492 566 35,000  Level FlightAware
02:18AM 5.0420 -73.2790 141° Southeast 490 564 35,000  Level FlightAware
02:19AM 4.9740 -73.2250 142° Southeast 487 560 35,000  Level FlightAware
02:19AM 4.9160 -73.1780 141° Southeast 486 559 35,000  Level FlightAware
02:20AM 4.8510 -73.1250 141° Southeast 483 556 35,000  Level FlightAware
02:21AM 4.7890 -73.0750 141° Southeast 482 555 35,000  Level FlightAware
02:21AM 4.7330 -73.0300 141° Southeast 480 552 35,000  Level FlightAware
02:22AM 4.6570 -72.9690 141° Southeast 479 551 35,000  Level FlightAware
02:23AM 4.6050 -72.9260 141° Southeast 479 551 35,000  Level FlightAware
02:23AM 4.5680 -72.8970 142° Southeast 479 551 35,000  Level FlightAware
02:24AM 4.5150 -72.8540 141° Southeast 479 551 35,000  Level FlightAware
02:24AM 4.4630 -72.8110 140° Southeast 479 551 35,000  Level FlightAware
02:25AM 4.4100 -72.7680 141° Southeast 479 551 35,000  Level FlightAware
02:25AM 4.3570 -72.7250 141° Southeast 479 551 35,000  Level FlightAware
02:26AM 4.3050 -72.6830 141° Southeast 479 551 35,000  Level FlightAware
02:27AM 4.2520 -72.6400 141° Southeast 479 551 35,000  Level FlightAware
02:27AM 4.1990 -72.5970 141° Southeast 479 551 35,000  Level FlightAware
02:28AM 4.1470 -72.5540 140° Southeast 479 551 35,000  Level FlightAware
02:28AM 4.0940 -72.5120 142° Southeast 479 551 35,000  Level FlightAware
02:29AM 4.0380 -72.4660 141° Southeast 479 551 35,000  Level FlightAware
02:30AM 3.9840 -72.4220 141° Southeast 479 551 35,000  Level FlightAware
02:30AM 3.9310 -72.3800 142° Southeast 479 551 35,000  Level FlightAware
02:31AM 3.8770 -72.3360 141° Southeast 479 551 35,000  Level FlightAware
02:31AM 3.8240 -72.2930 141° Southeast 479 551 35,000  Level FlightAware
02:34AM 3.6188 -72.1111 139° Southeast  Level Estimated
02:35AM 3.5170 -72.0210 139° Southeast  Level Estimated
02:36AM 3.4152 -71.9308 139° Southeast  Level Estimated
02:37AM 3.3134 -71.8407 139° Southeast  Level Estimated
02:38AM 3.2116 -71.7506 139° Southeast  Level Estimated
02:39AM 3.1098 -71.6606 139° Southeast  Level Estimated
02:40AM 3.0080 -71.5705 139° Southeast  Level Estimated
02:41AM 2.9061 -71.4804 139° Southeast  Level Estimated
02:42AM 2.8043 -71.3904 139° Southeast  Level Estimated
02:43AM 2.7025 -71.3004 139° Southeast  Level Estimated
02:44AM 2.6006 -71.2104 139° Southeast  Level Estimated
02:45AM 2.4987 -71.1204 139° Southeast  Level Estimated
02:46AM 2.3969 -71.0304 139° Southeast  Level Estimated
02:47AM 2.2950 -70.9405 139° Southeast  Level Estimated
02:48AM 2.1932 -70.8505 139° Southeast  Level Estimated
02:49AM 2.0913 -70.7606 139° Southeast  Level Estimated
02:50AM 1.9894 -70.6707 139° Southeast  Level Estimated
02:51AM 1.8875 -70.5808 139° Southeast  Level Estimated
02:52AM 1.7856 -70.4909 139° Southeast  Level Estimated
02:53AM 1.6837 -70.4010 139° Southeast  Level Estimated
02:54AM 1.5818 -70.3111 139° Southeast  Level Estimated
02:55AM 1.4799 -70.2213 139° Southeast  Level Estimated
02:56AM 1.3780 -70.1314 139° Southeast  Level Estimated
02:57AM 1.2761 -70.0415 139° Southeast  Level Estimated
02:58AM 1.1742 -69.9517 139° Southeast  Level Estimated
02:59AM 1.0722 -69.8618 139° Southeast  Level Estimated
03:00AM 0.9703 -69.7720 139° Southeast  Level Estimated
03:01AM 0.8684 -69.6822 139° Southeast  Level Estimated
03:02AM 0.7665 -69.5924 139° Southeast  Level Estimated
03:03AM 0.6645 -69.5025 139° Southeast  Level Estimated
03:04AM 0.5626 -69.4127 139° Southeast  Level Estimated
03:05AM 0.4607 -69.3229 139° Southeast  Level Estimated
03:06AM 0.3587 -69.2331 139° Southeast  Level Estimated
03:07AM 0.2568 -69.1433 139° Southeast  Level Estimated
03:08AM 0.1549 -69.0535 139° Southeast  Level Estimated
03:09AM 0.0530 -68.9637 139° Southeast  Level Estimated
03:10AM -0.0490 -68.8739 139° Southeast  Level Estimated
03:11AM -0.1509 -68.7841 139° Southeast  Level Estimated
03:12AM -0.2528 -68.6943 139° Southeast  Level Estimated
03:13AM -0.3548 -68.6044 139° Southeast  Level Estimated
03:14AM -0.4567 -68.5146 139° Southeast  Level Estimated
03:15AM -0.5586 -68.4248 139° Southeast  Level Estimated
03:16AM -0.6605 -68.3350 139° Southeast  Level Estimated
03:17AM -0.7625 -68.2452 139° Southeast  Level Estimated
03:18AM -0.8644 -68.1554 139° Southeast  Level Estimated
03:19AM -0.9663 -68.0655 139° Southeast  Level Estimated
03:20AM -1.0682 -67.9757 139° Southeast  Level Estimated
03:21AM -1.1702 -67.8859 139° Southeast  Level Estimated
03:22AM -1.2721 -67.7960 139° Southeast  Level Estimated
03:23AM -1.3740 -67.7062 139° Southeast  Level Estimated
03:24AM -1.4759 -67.6163 139° Southeast  Level Estimated
03:25AM -1.5778 -67.5264 139° Southeast  Level Estimated
03:26AM -1.6797 -67.4365 139° Southeast  Level Estimated
03:27AM -1.7816 -67.3467 139° Southeast  Level Estimated
03:28AM -1.8835 -67.2568 139° Southeast  Level Estimated
03:29AM -1.9854 -67.1668 139° Southeast  Level Estimated
03:30AM -2.0873 -67.0769 139° Southeast  Level Estimated
03:31AM -2.1892 -66.9870 139° Southeast  Level Estimated
03:32AM -2.2910 -66.8971 139° Southeast  Level Estimated
03:33AM -2.3929 -66.8071 139° Southeast  Level Estimated
03:34AM -2.4948 -66.7171 139° Southeast  Level Estimated
03:35AM -2.5966 -66.6272 139° Southeast  Level Estimated
03:36AM -2.6985 -66.5371 139° Southeast  Level Estimated
03:37AM -2.8003 -66.4471 139° Southeast  Level Estimated
03:38AM -2.9021 -66.3571 139° Southeast  Level Estimated
03:39AM -3.0040 -66.2671 139° Southeast  Level Estimated
03:40AM -3.1058 -66.1770 139° Southeast  Level Estimated
03:41AM -3.2076 -66.0869 139° Southeast  Level Estimated
03:42AM -3.3094 -65.9968 139° Southeast  Level Estimated
03:43AM -3.4112 -65.9067 139° Southeast  Level Estimated
03:44AM -3.5130 -65.8166 139° Southeast  Level Estimated
03:45AM -3.6148 -65.7264 139° Southeast  Level Estimated
03:46AM -3.7166 -65.6363 139° Southeast  Level Estimated
03:47AM -3.8183 -65.5461 139° Southeast  Level Estimated
03:48AM -3.9201 -65.4558 139° Southeast  Level Estimated
03:49AM -4.0218 -65.3656 139° Southeast  Level Estimated
03:50AM -4.1235 -65.2754 138° Southeast  Level Estimated
03:51AM -4.2253 -65.1851 138° Southeast  Level Estimated
03:52AM -4.3270 -65.0948 138° Southeast  Level Estimated
03:53AM -4.4287 -65.0044 138° Southeast  Level Estimated
03:54AM -4.5304 -64.9141 138° Southeast  Level Estimated
03:55AM -4.6320 -64.8237 138° Southeast  Level Estimated
03:56AM -4.7337 -64.7333 138° Southeast  Level Estimated
03:57AM -4.8354 -64.6429 138° Southeast  Level Estimated
03:58AM -4.9370 -64.5524 138° Southeast  Level Estimated
03:59AM -5.0386 -64.4619 138° Southeast  Level Estimated
04:00AM -5.1403 -64.3714 138° Southeast  Level Estimated
04:01AM -5.2419 -64.2808 138° Southeast  Level Estimated
04:02AM -5.3435 -64.1902 138° Southeast  Level Estimated
04:03AM -5.4450 -64.0996 138° Southeast  Level Estimated
04:04AM -5.5466 -64.0090 138° Southeast  Level Estimated
04:05AM -5.6482 -63.9183 138° Southeast  Level Estimated
04:06AM -5.7497 -63.8276 138° Southeast  Level Estimated
04:07AM -5.8512 -63.7369 138° Southeast  Level Estimated
04:08AM -5.9527 -63.6461 138° Southeast  Level Estimated
04:09AM -6.0542 -63.5553 138° Southeast  Level Estimated
04:10AM -6.1557 -63.4645 138° Southeast  Level Estimated
04:11AM -6.2572 -63.3736 138° Southeast  Level Estimated
04:12AM -6.3586 -63.2827 138° Southeast  Level Estimated
04:13AM -6.4601 -63.1918 138° Southeast  Level Estimated
04:14AM -6.5615 -63.1008 138° Southeast  Level Estimated
04:15AM -6.6629 -63.0098 138° Southeast  Level Estimated
04:16AM -6.7642 -62.9188 138° Southeast  Level Estimated
04:17AM -6.8656 -62.8277 138° Southeast  Level Estimated
04:18AM -6.9670 -62.7365 138° Southeast  Level Estimated
04:19AM -7.0683 -62.6454 138° Southeast  Level Estimated
04:20AM -7.1696 -62.5541 138° Southeast  Level Estimated
04:21AM -7.2709 -62.4629 138° Southeast  Level Estimated
04:22AM -7.3722 -62.3716 138° Southeast  Level Estimated
04:23AM -7.4735 -62.2803 138° Southeast  Level Estimated
04:24AM -7.5747 -62.1889 138° Southeast  Level Estimated
04:25AM -7.6759 -62.0975 138° Southeast  Level Estimated
04:26AM -7.7771 -62.0060 138° Southeast  Level Estimated
04:27AM -7.8783 -61.9145 138° Southeast  Level Estimated
04:28AM -7.9795 -61.8230 138° Southeast  Level Estimated
04:29AM -8.0806 -61.7314 138° Southeast  Level Estimated
04:30AM -8.1817 -61.6398 138° Southeast  Level Estimated
04:31AM -8.2828 -61.5481 138° Southeast  Level Estimated
04:32AM -8.3839 -61.4563 138° Southeast  Level Estimated
04:33AM -8.4850 -61.3646 138° Southeast  Level Estimated
04:34AM -8.5860 -61.2727 138° Southeast  Level Estimated
04:35AM -8.6870 -61.1809 138° Southeast  Level Estimated
04:36AM -8.7880 -61.0889 138° Southeast  Level Estimated
04:37AM -8.8890 -60.9969 138° Southeast  Level Estimated
04:38AM -8.9899 -60.9049 138° Southeast  Level Estimated
04:39AM -9.0908 -60.8128 138° Southeast  Level Estimated
04:40AM -9.1917 -60.7207 138° Southeast  Level Estimated
04:41AM -9.2926 -60.6285 138° Southeast  Level Estimated
04:42AM -9.3935 -60.5363 138° Southeast  Level Estimated
04:43AM -9.4943 -60.4440 138° Southeast  Level Estimated
04:44AM -9.5951 -60.3517 138° Southeast  Level Estimated
04:45AM -9.6959 -60.2593 138° Southeast  Level Estimated
04:46AM -9.7967 -60.1668 138° Southeast  Level Estimated
04:47AM -9.8974 -60.0743 138° Southeast  Level Estimated
04:48AM -9.9981 -59.9817 138° Southeast  Level Estimated
04:49AM -10.0988 -59.8891 138° Southeast  Level Estimated
04:50AM -10.1994 -59.7964 138° Southeast  Level Estimated
04:51AM -10.3001 -59.7037 138° Southeast  Level Estimated
04:52AM -10.4007 -59.6109 138° Southeast  Level Estimated
04:53AM -10.5013 -59.5180 138° Southeast  Level Estimated
04:54AM -10.6018 -59.4251 138° Southeast  Level Estimated
04:55AM -10.7023 -59.3321 138° Southeast  Level Estimated
04:56AM -10.8028 -59.2391 138° Southeast  Level Estimated
04:57AM -10.9033 -59.1460 138° Southeast  Level Estimated
04:58AM -11.0037 -59.0528 138° Southeast  Level Estimated
04:59AM -11.1042 -58.9596 138° Southeast  Level Estimated
05:00AM -11.2045 -58.8663 138° Southeast  Level Estimated
05:01AM -11.3049 -58.7729 138° Southeast  Level Estimated
05:02AM -11.4052 -58.6795 138° Southeast  Level Estimated
05:03AM -11.5055 -58.5860 138° Southeast  Level Estimated
05:04AM -11.6058 -58.4924 138° Southeast  Level Estimated
05:05AM -11.7060 -58.3988 138° Southeast  Level Estimated
05:06AM -11.8062 -58.3051 138° Southeast  Level Estimated
05:07AM -11.9064 -58.2113 138° Southeast  Level Estimated
05:08AM -12.0065 -58.1175 137° Southeast  Level Estimated
05:09AM -12.1067 -58.0236 137° Southeast  Level Estimated
05:10AM -12.2067 -57.9296 137° Southeast  Level Estimated
05:11AM -12.3068 -57.8356 137° Southeast  Level Estimated
05:12AM -12.4068 -57.7415 137° Southeast  Level Estimated
05:13AM -12.5068 -57.6473 137° Southeast  Level Estimated
05:14AM -12.6067 -57.5530 137° Southeast  Level Estimated
05:15AM -12.7067 -57.4587 137° Southeast  Level Estimated
05:16AM -12.8066 -57.3643 137° Southeast  Level Estimated
05:17AM -12.9064 -57.2698 137° Southeast  Level Estimated
05:18AM -13.0062 -57.1753 137° Southeast  Level Estimated
05:19AM -13.1060 -57.0806 137° Southeast  Level Estimated
05:20AM -13.2058 -56.9859 137° Southeast  Level Estimated
05:21AM -13.3055 -56.8911 137° Southeast  Level Estimated
05:22AM -13.4051 -56.7963 137° Southeast  Level Estimated
05:23AM -13.5048 -56.7013 137° Southeast  Level Estimated
05:24AM -13.6044 -56.6063 137° Southeast  Level Estimated
05:25AM -13.7040 -56.5112 137° Southeast  Level Estimated
05:26AM -13.8035 -56.4160 137° Southeast  Level Estimated
05:27AM -13.9030 -56.3207 137° Southeast  Level Estimated
05:28AM -14.0025 -56.2254 137° Southeast  Level Estimated
05:29AM -14.1019 -56.1300 137° Southeast  Level Estimated
05:30AM -14.2013 -56.0344 137° Southeast  Level Estimated
05:31AM -14.3006 -55.9388 137° Southeast  Level Estimated
05:32AM -14.3999 -55.8432 137° Southeast  Level Estimated
05:33AM -14.4992 -55.7474 137° Southeast  Level Estimated
05:34AM -14.5984 -55.6515 137° Southeast  Level Estimated
05:35AM -14.6976 -55.5556 137° Southeast  Level Estimated
05:36AM -14.7968 -55.4596 137° Southeast  Level Estimated
05:37AM -14.8959 -55.3634 137° Southeast  Level Estimated
05:38AM -14.9950 -55.2673 137° Southeast  Level Estimated
05:39AM -15.0940 -55.1710 137° Southeast  Level Estimated
05:40AM -15.1930 -55.0746 137° Southeast  Level Estimated
05:41AM -15.2919 -54.9781 137° Southeast  Level Estimated
05:42AM -15.3908 -54.8815 137° Southeast  Level Estimated
05:43AM -15.4897 -54.7849 137° Southeast  Level Estimated
05:44AM -15.5885 -54.6881 137° Southeast  Level Estimated
05:45AM -15.6873 -54.5913 137° Southeast  Level Estimated
05:46AM -15.7861 -54.4944 137° Southeast  Level Estimated
05:47AM -15.8848 -54.3973 137° Southeast  Level Estimated
05:48AM -15.9834 -54.3002 137° Southeast  Level Estimated
05:49AM -16.0820 -54.2030 137° Southeast  Level Estimated
05:50AM -16.1806 -54.1057 137° Southeast  Level Estimated
05:51AM -16.2791 -54.0083 137° Southeast  Level Estimated
05:52AM -16.3776 -53.9107 136° Southeast  Level Estimated
05:53AM -16.4760 -53.8131 136° Southeast  Level Estimated
05:54AM -16.5744 -53.7154 136° Southeast  Level Estimated
05:55AM -16.6728 -53.6176 136° Southeast  Level Estimated
05:56AM -16.7711 -53.5197 136° Southeast  Level Estimated
05:57AM -16.8693 -53.4217 136° Southeast  Level Estimated
05:58AM -16.9675 -53.3236 136° Southeast  Level Estimated
05:59AM -17.0657 -53.2254 136° Southeast  Level Estimated
06:00AM -17.1638 -53.1270 136° Southeast  Level Estimated
06:01AM -17.2619 -53.0286 136° Southeast  Level Estimated
06:02AM -17.3599 -52.9301 136° Southeast  Level Estimated
06:03AM -17.4579 -52.8315 136° Southeast  Level Estimated
06:04AM -17.5558 -52.7327 136° Southeast  Level Estimated
06:05AM -17.6537 -52.6339 136° Southeast  Level Estimated
06:06AM -17.7515 -52.5349 136° Southeast  Level Estimated
06:07AM -17.8492 -52.4359 136° Southeast  Level Estimated
06:08AM -17.9470 -52.3367 136° Southeast  Level Estimated
06:09AM -18.0446 -52.2374 136° Southeast  Level Estimated
06:10AM -18.1423 -52.1380 136° Southeast  Level Estimated
06:11AM -18.2398 -52.0385 136° Southeast  Level Estimated
06:12AM -18.3373 -51.9389 136° Southeast  Level Estimated
06:13AM -18.4348 -51.8392 136° Southeast  Level Estimated
06:14AM -18.5322 -51.7393 136° Southeast  Level Estimated
06:15AM -18.6296 -51.6394 136° Southeast  Level Estimated
06:16AM -18.7269 -51.5393 136° Southeast  Level Estimated
06:17AM -18.8241 -51.4391 136° Southeast  Level Estimated
06:18AM -18.9213 -51.3388 136° Southeast  Level Estimated
06:19AM -19.0185 -51.2384 136° Southeast  Level Estimated
06:20AM -19.1156 -51.1379 136° Southeast  Level Estimated
06:21AM -19.2126 -51.0372 136° Southeast  Level Estimated
06:22AM -19.3096 -50.9365 136° Southeast  Level Estimated
06:23AM -19.4065 -50.8356 136° Southeast  Level Estimated
06:24AM -19.5034 -50.7346 136° Southeast  Level Estimated
06:25AM -19.6002 -50.6334 135° Southeast  Level Estimated
06:26AM -19.6970 -50.5322 135° Southeast  Level Estimated
06:27AM -19.7937 -50.4308 135° Southeast  Level Estimated
06:28AM -19.8903 -50.3293 135° Southeast  Level Estimated
06:29AM -19.9869 -50.2277 135° Southeast  Level Estimated
06:30AM -20.0834 -50.1259 135° Southeast  Level Estimated
06:31AM -20.1799 -50.0241 135° Southeast  Level Estimated
06:31AM -18.9360 -50.7410 135° Southeast 427 491 37,000  Level FlightAware
06:32AM -20.2763 -49.9221 135° Southeast  Level Estimated
06:32AM -18.9790 -50.6910 132° Southeast 427 491 37,000  Level FlightAware
06:33AM -19.0370 -50.6310 136° Southeast 427 491 37,000  Level FlightAware
06:33AM -19.0800 -50.5830 133° Southeast 428 493 37,000  Level FlightAware
06:34AM -19.1390 -50.5190 134° Southeast 428 493 37,000  Level FlightAware
06:34AM -19.1860 -50.4680 134° Southeast 428 493 37,000  Level FlightAware
06:35AM -19.2330 -50.4160 134° Southeast 428 493 37,000  Level FlightAware
06:36AM -19.2840 -50.3600 134° Southeast 430 495 37,000  Level FlightAware
06:36AM -19.3290 -50.3110 134° Southeast 430 495 37,000  Level FlightAware
06:37AM -19.3770 -50.2580 134° Southeast 430 495 37,000  Level FlightAware
06:37AM -19.4280 -50.2020 134° Southeast 432 497 37,000  Level FlightAware
06:38AM -19.4790 -50.1460 134° Southeast 433 498 37,000  Level FlightAware
06:38AM -19.5230 -50.0980 134° Southeast 434 499 37,000  Level FlightAware
06:39AM -19.5650 -50.0510 133° Southeast 434 499 37,000  Level FlightAware
06:40AM -19.6210 -49.9890 134° Southeast 434 499 37,000  Level FlightAware
06:40AM -19.6710 -49.9350 135° Southeast 435 501 37,000  Level FlightAware
06:41AM -19.7200 -49.8820 134° Southeast 437 503 37,000  Level FlightAware
06:41AM -19.7710 -49.8260 134° Southeast 437 503 37,000  Level FlightAware
06:42AM -19.8210 -49.7710 134° Southeast 437 503 37,000  Level FlightAware
06:42AM -19.8670 -49.7210 134° Southeast 439 505 37,000  Level FlightAware
06:43AM -19.9170 -49.6660 134° Southeast 439 505 37,000  Level FlightAware
06:44AM -19.9670 -49.6110 134° Southeast 440 506 37,000  Level FlightAware
06:44AM -20.0190 -49.5540 134° Southeast 441 507 37,000  Level FlightAware
06:45AM -20.0680 -49.5000 134° Southeast 441 507 37,000  Level FlightAware
06:45AM -20.1160 -49.4480 135° Southeast 442 509 37,000  Level FlightAware
06:46AM -20.1670 -49.3910 134° Southeast 442 509 37,000  Level FlightAware
06:47AM -20.2130 -49.3400 134° Southeast 443 510 37,000  Level FlightAware
06:47AM -20.2640 -49.2840 134° Southeast 443 510 37,000  Level FlightAware
06:48AM -20.3190 -49.2240 134° Southeast 443 510 37,000  Level FlightAware
06:48AM -20.3690 -49.1680 134° Southeast 443 510 37,000  Level FlightAware
06:49AM -20.4150 -49.1170 134° Southeast 443 510 37,000  Level FlightAware
06:50AM -20.4650 -49.0610 134° Southeast 438 504 37,000  Level FlightAware
06:50AM -20.5130 -49.0090 135° Southeast 433 498 37,000  Level FlightAware
06:51AM -20.5630 -48.9530 134° Southeast 432 497 37,000  Level FlightAware
06:51AM -20.6120 -48.8990 134° Southeast 430 495 37,000  Level FlightAware
06:52AM -20.6560 -48.8490 133° Southeast 430 495 37,000  Level FlightAware
06:52AM -20.7090 -48.7910 134° Southeast 430 495 37,000  Level FlightAware
06:53AM -20.7520 -48.7420 133° Southeast 430 495 37,000  Level FlightAware
06:54AM -20.8020 -48.6870 134° Southeast 431 496 37,000  Level FlightAware
06:54AM -20.8480 -48.6350 133° Southeast 431 496 37,000  Level FlightAware
06:55AM -20.8970 -48.5800 134° Southeast 432 497 37,000  Level FlightAware
06:55AM -20.9480 -48.5230 134° Southeast 433 498 37,000  Level FlightAware
06:56AM -20.9940 -48.4710 133° Southeast 434 499 37,000  Level FlightAware
06:57AM -21.0440 -48.4150 134° Southeast 435 501 37,000  Level FlightAware
06:57AM -21.0910 -48.3620 134° Southeast 435 501 37,000  Level FlightAware
06:58AM -21.1420 -48.3040 133° Southeast 436 502 37,000  Level FlightAware
06:58AM -21.1920 -48.2470 133° Southeast 436 502 37,000  Level FlightAware
06:59AM -21.2410 -48.1910 133° Southeast 437 503 37,000  Level FlightAware
06:59AM -21.2860 -48.1400 133° Southeast 437 503 37,000  Level FlightAware
07:00AM -21.3310 -48.0900 134° Southeast 437 503 37,000  Level FlightAware
07:00AM -21.3760 -48.0390 133° Southeast 438 504 37,000  Level FlightAware
07:01AM -21.4250 -47.9840 134° Southeast 439 505 37,000  Level FlightAware
07:02AM -21.4790 -47.9220 133° Southeast 440 506 37,000  Level FlightAware
07:02AM -21.5120 -47.8850 134° Southeast 440 506 37,000  Level FlightAware
07:03AM -21.5870 -47.8000 134° Southeast 440 506 37,000  Level FlightAware
07:04AM -21.6350 -47.7450 133° Southeast 440 506 37,000  Level FlightAware
07:04AM -21.6860 -47.6870 133° Southeast 441 507 37,000 -480 Level FlightAware
07:05AM -21.7340 -47.6330 134° Southeast 441 507 36,500 -1,260 Descending FlightAware
07:05AM -21.7800 -47.5790 133° Southeast 445 512 35,600 -1,620 Descending FlightAware
07:06AM -21.8310 -47.5210 133° Southeast 447 514 34,700 -1,500 Descending FlightAware
07:07AM -21.8830 -47.4620 134° Southeast 449 517 33,800 -1,380 Descending FlightAware
07:07AM -21.9310 -47.4060 133° Southeast 449 517 33,100 -1,380 Descending FlightAware
07:08AM -21.9850 -47.3520 137° Southeast 444 511 32,200 -1,680 Descending FlightAware
07:08AM -22.0500 -47.3180 154° Southeast 444 511 31,100 -1,980 Descending FlightAware
07:09AM -22.1130 -47.2910 158° South 444 511 30,000 -2,580 Descending FlightAware
07:09AM -22.1790 -47.2640 159° South 450 518 28,200 -2,580 Descending FlightAware
07:10AM -22.2440 -47.2380 160° South 439 505 27,100 -1,920 Descending FlightAware
07:11AM -22.3140 -47.2090 159° South 421 484 26,000 -2,160 Descending FlightAware
07:11AM -22.3800 -47.1820 159° South 417 480 24,500 -2,280 Descending FlightAware
07:12AM -22.4450 -47.1540 158° South 413 475 23,300 -1,980 Descending FlightAware
07:12AM -22.4980 -47.1310 158° South 411 473 22,300 -2,040 Descending FlightAware
07:13AM -22.5640 -47.1030 159° South 407 468 21,000 -2,160 Descending FlightAware
07:14AM -22.6290 -47.0750 158° South 402 463 19,800 -2,040 Descending FlightAware
07:14AM -22.6900 -47.0500 159° South 399 459 18,600 -1,620 Descending FlightAware
07:15AM -22.7460 -47.0270 159° South 369 425 18,000 -1,800 Descending FlightAware
07:15AM -22.8010 -47.0040 159° South 334 384 16,600 -2,280 Descending FlightAware
07:16AM -22.8470 -46.9840 158° South 312 359 15,400 -1,500 Descending FlightAware
07:16AM -22.8980 -46.9630 159° South 300 345 14,800 -1,080 Descending FlightAware
07:17AM -22.9390 -46.9460 159° South 296 341 14,200 -1,620 Descending FlightAware
07:18AM -22.9850 -46.9270 159° South 287 330 13,000 -1,800 Descending FlightAware
07:18AM -23.0290 -46.9080 158° South 281 323 12,100 -1,680 Descending FlightAware
07:19AM -23.0730 -46.8890 158° South 278 320 11,000 -1,620 Descending FlightAware
07:19AM -23.1100 -46.8740 160° South 274 315 10,300 -1,020 Descending FlightAware
07:20AM -23.1440 -46.8600 159° South 268 308 10,000 -1,080 Descending FlightAware
07:20AM -23.1720 -46.8470 157° South 267 307 9,400 -1,260 Descending FlightAware
07:21AM -23.1940 -46.8380 159° South 262 302 9,100 -1,200 Descending FlightAware
07:21AM -23.2160 -46.8290 159° South 258 297 8,600 -1,380 Descending FlightAware
07:21AM -23.2390 -46.8190 158° South 238 274 8,200 -1,200 Descending FlightAware
07:22AM -23.2580 -46.8110 159° South 227 261 7,800 -1,320 Descending FlightAware
07:22AM -23.2750 -46.8040 159° South 228 262 7,400 -840 Descending FlightAware
07:22AM -23.2960 -46.7950 159° South 223 257 7,300 -300 Descending FlightAware
07:22AM -23.3150 -46.7870 159° South 220 253 7,200 -480 Descending FlightAware
07:23AM -23.3340 -46.7790 159° South 220 253 7,000 -480 Descending FlightAware
07:23AM -23.3530 -46.7710 159° South 211 243 6,900 -420 Descending FlightAware
07:24AM -23.3740 -46.7600 154° Southeast 223 257 6,700 -720 Descending FlightAware
07:24AM -23.3890 -46.7470 142° Southeast 224 258 6,400 -900 Descending FlightAware
07:24AM -23.4060 -46.7320 141° Southeast 219 252 6,100 -960 Descending FlightAware
07:25AM -23.4220 -46.7160 137° Southeast 216 249 5,700 -1,020 Descending FlightAware
07:25AM -23.4370 -46.7020 139° Southeast 211 243 5,400 -900 Descending FlightAware
07:25AM -23.4470 -46.6910 135° Southeast 205 236 5,200 -1,080 Descending FlightAware
07:25AM -23.4510 -46.6840 122° Southeast 204 235 5,000 -840 Descending FlightAware
07:26AM -23.4600 -46.6640 116° Southeast 192 221 4,800 -180 Descending FlightAware
07:26AM -23.4680 -46.6470 117° Southeast 187 215 4,900 -180 Climbing FlightAware
07:26AM -23.4730 -46.6340 113° Southeast 182 209 4,700 -600 Descending FlightAware
07:26AM -23.4740 -46.6300 105° East 179 206 4,700 -600 Level FlightAware
07:26AM -23.4740 -46.6240 90° East 180 207 4,600 -900 Descending FlightAware
07:27AM -23.4710 -46.6060 80° East 175 201 4,300 -960 Descending FlightAware
07:27AM -23.4650 -46.5850 73° East 176 203 3,900 -960 Descending FlightAware
07:28AM -23.4610 -46.5680 76° East 163 188 3,600 -960 Descending FlightAware
07:28AM -23.4580 -46.5590 70° East 156 180 3,400 -840 Descending FlightAware
07:28AM -23.4540 -46.5430 75° East 139 160 3,100 -600 Descending FlightAware
07:28AM -23.4510 -46.5320 73° East 132 152 3,000 -540 Descending FlightAware
07:29AM -23.4480 -46.5210 73° East 135 155 2,800 -840 Descending FlightAware
07:29AM -23.4450 -46.5080 76° East 135 155 2,500 -780 Descending FlightAware
07:30AM -23.4380 -46.4840 72° East 136 157 2,100 -720 Descending FlightAware
07:30AM -23.4350 -46.4750 70° East 96 110 -6,000 Descending FlightAware